sensor_id;sensor_type;location;lat;lon;timestamp;temperature;humidity
67820;DHT22;54618;52.018;5.576;2023-05-10T00:00:32;20.60;59.10
67820;DHT22;54618;52.018;5.576;2023-05-10T00:02:58;20.50;59.00
67820;DHT22;54618;52.018;5.576;2023-05-10T00:05:23;20.60;59.10
67820;DHT22;54618;52.018;5.576;2023-05-10T00:07:49;20.50;59.00
67820;DHT22;54618;52.018;5.576;2023-05-10T00:10:14;20.50;59.00
67820;DHT22;54618;52.018;5.576;2023-05-10T00:12:40;20.50;59.10
67820;DHT22;54618;52.018;5.576;2023-05-10T00:15:06;20.50;59.10
67820;DHT22;54618;52.018;5.576;2023-05-10T00:17:32;20.50;59.00
67820;DHT22;54618;52.018;5.576;2023-05-10T00:19:58;20.50;59.00
67820;DHT22;54618;52.018;5.576;2023-05-10T00:22:24;20.50;59.00
67820;DHT22;54618;52.018;5.576;2023-05-10T00:24:49;20.50;59.00
67820;DHT22;54618;52.018;5.576;2023-05-10T00:27:15;20.50;59.10
67820;DHT22;54618;52.018;5.576;2023-05-10T00:29:40;20.50;59.10
67820;DHT22;54618;52.018;5.576;2023-05-10T00:32:06;20.50;59.10
67820;DHT22;54618;52.018;5.576;2023-05-10T00:34:31;20.50;59.10
67820;DHT22;54618;52.018;5.576;2023-05-10T00:36:57;20.50;59.00
67820;DHT22;54618;52.018;5.576;2023-05-10T00:39:23;20.40;59.00
67820;DHT22;54618;52.018;5.576;2023-05-10T00:41:48;20.50;59.10
67820;DHT22;54618;52.018;5.576;2023-05-10T00:44:14;20.50;59.10
67820;DHT22;54618;52.018;5.576;2023-05-10T00:46:40;20.40;58.90
67820;DHT22;54618;52.018;5.576;2023-05-10T00:49:06;20.40;59.00
67820;DHT22;54618;52.018;5.576;2023-05-10T00:51:32;20.40;59.10
67820;DHT22;54618;52.018;5.576;2023-05-10T00:53:58;20.40;59.00
67820;DHT22;54618;52.018;5.576;2023-05-10T00:56:25;20.40;59.00
67820;DHT22;54618;52.018;5.576;2023-05-10T00:58:50;20.40;59.00
67820;DHT22;54618;52.018;5.576;2023-05-10T01:01:16;20.40;59.00
67820;DHT22;54618;52.018;5.576;2023-05-10T01:03:42;20.40;59.00
67820;DHT22;54618;52.018;5.576;2023-05-10T01:06:08;20.40;59.00
67820;DHT22;54618;52.018;5.576;2023-05-10T01:08:35;20.40;59.00
67820;DHT22;54618;52.018;5.576;2023-05-10T01:11:01;20.40;59.00
67820;DHT22;54618;52.018;5.576;2023-05-10T01:13:36;20.40;59.00
67820;DHT22;54618;52.018;5.576;2023-05-10T01:16:02;20.40;59.00
67820;DHT22;54618;52.018;5.576;2023-05-10T01:18:30;20.40;59.00
67820;DHT22;54618;52.018;5.576;2023-05-10T01:21:17;20.40;59.00
67820;DHT22;54618;52.018;5.576;2023-05-10T01:24:25;20.40;59.10
67820;DHT22;54618;52.018;5.576;2023-05-10T01:35:32;20.30;59.00
67820;DHT22;54618;52.018;5.576;2023-05-10T01:38:04;20.30;59.00
67820;DHT22;54618;52.018;5.576;2023-05-10T01:40:42;20.30;58.90
67820;DHT22;54618;52.018;5.576;2023-05-10T01:43:21;20.30;59.00
67820;DHT22;54618;52.018;5.576;2023-05-10T01:46:09;20.30;58.90
67820;DHT22;54618;52.018;5.576;2023-05-10T01:48:55;20.30;59.00
67820;DHT22;54618;52.018;5.576;2023-05-10T01:51:29;20.30;59.10
67820;DHT22;54618;52.018;5.576;2023-05-10T01:54:02;20.30;58.90
67820;DHT22;54618;52.018;5.576;2023-05-10T01:56:30;20.30;58.90
67820;DHT22;54618;52.018;5.576;2023-05-10T01:58:58;20.30;58.90
67820;DHT22;54618;52.018;5.576;2023-05-10T02:01:24;20.30;58.90
67820;DHT22;54618;52.018;5.576;2023-05-10T02:03:51;20.30;58.90
67820;DHT22;54618;52.018;5.576;2023-05-10T02:06:20;20.30;58.90
67820;DHT22;54618;52.018;5.576;2023-05-10T02:08:49;20.30;58.90
67820;DHT22;54618;52.018;5.576;2023-05-10T02:11:17;20.30;58.90
67820;DHT22;54618;52.018;5.576;2023-05-10T02:13:44;20.30;58.90
67820;DHT22;54618;52.018;5.576;2023-05-10T02:16:11;20.30;58.90
67820;DHT22;54618;52.018;5.576;2023-05-10T02:18:39;20.30;58.90
67820;DHT22;54618;52.018;5.576;2023-05-10T02:21:06;20.30;58.90
67820;DHT22;54618;52.018;5.576;2023-05-10T02:23:32;20.30;58.90
67820;DHT22;54618;52.018;5.576;2023-05-10T02:26:00;20.30;58.90
67820;DHT22;54618;52.018;5.576;2023-05-10T02:28:28;20.30;58.90
67820;DHT22;54618;52.018;5.576;2023-05-10T02:30:54;20.30;58.90
67820;DHT22;54618;52.018;5.576;2023-05-10T02:33:21;20.20;58.90
67820;DHT22;54618;52.018;5.576;2023-05-10T02:35:47;20.20;58.90
67820;DHT22;54618;52.018;5.576;2023-05-10T02:38:14;20.20;58.90
67820;DHT22;54618;52.018;5.576;2023-05-10T02:40:41;20.20;58.90
67820;DHT22;54618;52.018;5.576;2023-05-10T02:43:12;20.20;58.90
67820;DHT22;54618;52.018;5.576;2023-05-10T02:45:40;20.20;58.90
67820;DHT22;54618;52.018;5.576;2023-05-10T02:48:06;20.20;58.90
67820;DHT22;54618;52.018;5.576;2023-05-10T02:50:33;20.20;58.90
67820;DHT22;54618;52.018;5.576;2023-05-10T02:53:06;20.20;58.90
67820;DHT22;54618;52.018;5.576;2023-05-10T02:55:40;20.20;58.80
67820;DHT22;54618;52.018;5.576;2023-05-10T02:58:07;20.20;58.90
67820;DHT22;54618;52.018;5.576;2023-05-10T03:00:33;20.20;58.90
67820;DHT22;54618;52.018;5.576;2023-05-10T03:02:59;20.20;58.90
67820;DHT22;54618;52.018;5.576;2023-05-10T03:05:24;20.20;58.90
67820;DHT22;54618;52.018;5.576;2023-05-10T03:07:50;20.20;58.90
67820;DHT22;54618;52.018;5.576;2023-05-10T03:10:17;20.20;58.80
67820;DHT22;54618;52.018;5.576;2023-05-10T03:13:13;20.20;58.90
67820;DHT22;54618;52.018;5.576;2023-05-10T03:18:33;20.20;58.90
67820;DHT22;54618;52.018;5.576;2023-05-10T03:21:04;20.20;58.80
67820;DHT22;54618;52.018;5.576;2023-05-10T03:23:43;20.20;58.70
67820;DHT22;54618;52.018;5.576;2023-05-10T03:26:08;20.20;58.80
67820;DHT22;54618;52.018;5.576;2023-05-10T03:28:35;20.20;58.60
67820;DHT22;54618;52.018;5.576;2023-05-10T03:31:02;20.20;58.60
67820;DHT22;54618;52.018;5.576;2023-05-10T03:33:29;20.20;58.70
67820;DHT22;54618;52.018;5.576;2023-05-10T03:35:55;20.20;58.70
67820;DHT22;54618;52.018;5.576;2023-05-10T03:38:20;20.20;58.70
67820;DHT22;54618;52.018;5.576;2023-05-10T03:40:46;20.20;58.70
67820;DHT22;54618;52.018;5.576;2023-05-10T03:43:11;20.20;58.70
67820;DHT22;54618;52.018;5.576;2023-05-10T03:45:37;20.20;58.70
67820;DHT22;54618;52.018;5.576;2023-05-10T03:48:02;20.20;58.70
67820;DHT22;54618;52.018;5.576;2023-05-10T03:50:28;20.20;58.80
67820;DHT22;54618;52.018;5.576;2023-05-10T03:52:54;20.10;58.70
67820;DHT22;54618;52.018;5.576;2023-05-10T03:55:19;20.10;58.70
67820;DHT22;54618;52.018;5.576;2023-05-10T03:57:45;20.10;58.70
67820;DHT22;54618;52.018;5.576;2023-05-10T04:00:11;20.10;58.80
67820;DHT22;54618;52.018;5.576;2023-05-10T04:02:36;20.10;58.80
67820;DHT22;54618;52.018;5.576;2023-05-10T04:05:02;20.10;58.70
67820;DHT22;54618;52.018;5.576;2023-05-10T04:07:28;20.10;58.80
67820;DHT22;54618;52.018;5.576;2023-05-10T04:09:54;20.10;58.80
67820;DHT22;54618;52.018;5.576;2023-05-10T04:12:20;20.10;58.80
67820;DHT22;54618;52.018;5.576;2023-05-10T04:14:45;20.10;58.80
67820;DHT22;54618;52.018;5.576;2023-05-10T04:17:11;20.10;59.40
67820;DHT22;54618;52.018;5.576;2023-05-10T04:19:36;20.10;58.80
67820;DHT22;54618;52.018;5.576;2023-05-10T04:22:02;20.00;58.70
67820;DHT22;54618;52.018;5.576;2023-05-10T04:24:28;20.10;58.80
67820;DHT22;54618;52.018;5.576;2023-05-10T04:26:54;20.00;58.70
67820;DHT22;54618;52.018;5.576;2023-05-10T04:29:20;20.00;58.70
67820;DHT22;54618;52.018;5.576;2023-05-10T04:31:46;20.00;58.70
67820;DHT22;54618;52.018;5.576;2023-05-10T04:34:11;20.00;58.70
67820;DHT22;54618;52.018;5.576;2023-05-10T04:36:37;20.00;58.70
67820;DHT22;54618;52.018;5.576;2023-05-10T04:39:03;20.00;58.70
67820;DHT22;54618;52.018;5.576;2023-05-10T04:41:29;20.00;58.70
67820;DHT22;54618;52.018;5.576;2023-05-10T04:43:55;20.00;58.70
67820;DHT22;54618;52.018;5.576;2023-05-10T04:46:21;20.00;58.70
67820;DHT22;54618;52.018;5.576;2023-05-10T04:48:46;20.00;58.70
67820;DHT22;54618;52.018;5.576;2023-05-10T04:51:12;20.00;58.70
67820;DHT22;54618;52.018;5.576;2023-05-10T04:53:38;20.00;58.70
67820;DHT22;54618;52.018;5.576;2023-05-10T04:56:03;20.00;59.30
67820;DHT22;54618;52.018;5.576;2023-05-10T04:58:29;20.00;58.70
67820;DHT22;54618;52.018;5.576;2023-05-10T05:00:55;20.00;58.70
67820;DHT22;54618;52.018;5.576;2023-05-10T05:03:20;20.00;58.70
67820;DHT22;54618;52.018;5.576;2023-05-10T05:05:46;20.00;58.70
67820;DHT22;54618;52.018;5.576;2023-05-10T05:08:11;20.00;58.70
67820;DHT22;54618;52.018;5.576;2023-05-10T05:10:37;20.00;58.70
67820;DHT22;54618;52.018;5.576;2023-05-10T05:13:02;20.00;58.70
67820;DHT22;54618;52.018;5.576;2023-05-10T05:15:28;20.00;58.70
67820;DHT22;54618;52.018;5.576;2023-05-10T05:17:53;19.90;58.60
67820;DHT22;54618;52.018;5.576;2023-05-10T05:20:19;19.90;58.60
67820;DHT22;54618;52.018;5.576;2023-05-10T05:22:44;20.00;58.70
67820;DHT22;54618;52.018;5.576;2023-05-10T05:25:10;20.00;58.60
67820;DHT22;54618;52.018;5.576;2023-05-10T05:27:37;20.00;58.70
67820;DHT22;54618;52.018;5.576;2023-05-10T05:30:02;20.00;58.70
67820;DHT22;54618;52.018;5.576;2023-05-10T05:32:29;19.90;58.60
67820;DHT22;54618;52.018;5.576;2023-05-10T05:34:55;20.00;58.70
67820;DHT22;54618;52.018;5.576;2023-05-10T05:37:21;20.00;58.50
67820;DHT22;54618;52.018;5.576;2023-05-10T05:39:48;20.30;58.30
67820;DHT22;54618;52.018;5.576;2023-05-10T05:42:13;20.60;57.70
67820;DHT22;54618;52.018;5.576;2023-05-10T05:44:40;20.80;57.30
67820;DHT22;54618;52.018;5.576;2023-05-10T05:47:06;21.10;57.00
67820;DHT22;54618;52.018;5.576;2023-05-10T05:49:32;21.20;56.80
67820;DHT22;54618;52.018;5.576;2023-05-10T05:52:02;21.30;56.70
67820;DHT22;54618;52.018;5.576;2023-05-10T05:54:28;21.20;56.70
67820;DHT22;54618;52.018;5.576;2023-05-10T05:56:57;21.20;56.80
67820;DHT22;54618;52.018;5.576;2023-05-10T05:59:23;21.30;56.70
67820;DHT22;54618;52.018;5.576;2023-05-10T06:01:49;21.40;56.70
67820;DHT22;54618;52.018;5.576;2023-05-10T06:04:15;21.50;56.50
67820;DHT22;54618;52.018;5.576;2023-05-10T06:06:41;21.50;56.40
67820;DHT22;54618;52.018;5.576;2023-05-10T06:09:08;21.40;56.60
67820;DHT22;54618;52.018;5.576;2023-05-10T06:11:33;21.40;56.60
67820;DHT22;54618;52.018;5.576;2023-05-10T06:14:00;21.50;56.50
67820;DHT22;54618;52.018;5.576;2023-05-10T06:16:25;21.60;56.40
67820;DHT22;54618;52.018;5.576;2023-05-10T06:18:51;21.50;56.50
67820;DHT22;54618;52.018;5.576;2023-05-10T06:21:17;21.50;56.60
67820;DHT22;54618;52.018;5.576;2023-05-10T06:23:42;21.60;56.50
67820;DHT22;54618;52.018;5.576;2023-05-10T06:26:08;21.60;56.30
67820;DHT22;54618;52.018;5.576;2023-05-10T06:28:33;21.60;56.40
67820;DHT22;54618;52.018;5.576;2023-05-10T06:30:59;21.60;56.50
67820;DHT22;54618;52.018;5.576;2023-05-10T06:33:25;21.60;56.40
67820;DHT22;54618;52.018;5.576;2023-05-10T06:35:51;21.70;56.30
67820;DHT22;54618;52.018;5.576;2023-05-10T06:38:16;21.70;56.30
67820;DHT22;54618;52.018;5.576;2023-05-10T06:40:42;21.60;56.30
67820;DHT22;54618;52.018;5.576;2023-05-10T06:43:08;21.70;56.40
67820;DHT22;54618;52.018;5.576;2023-05-10T06:45:33;21.70;56.20
67820;DHT22;54618;52.018;5.576;2023-05-10T06:48:00;21.70;56.10
67820;DHT22;54618;52.018;5.576;2023-05-10T06:50:25;21.70;56.10
67820;DHT22;54618;52.018;5.576;2023-05-10T06:52:51;21.70;56.20
67820;DHT22;54618;52.018;5.576;2023-05-10T06:55:16;21.80;56.20
67820;DHT22;54618;52.018;5.576;2023-05-10T06:57:42;21.80;56.00
67820;DHT22;54618;52.018;5.576;2023-05-10T07:00:08;21.70;56.10
67820;DHT22;54618;52.018;5.576;2023-05-10T07:02:35;21.80;56.20
67820;DHT22;54618;52.018;5.576;2023-05-10T07:05:00;21.80;56.20
67820;DHT22;54618;52.018;5.576;2023-05-10T07:07:26;21.80;55.90
67820;DHT22;54618;52.018;5.576;2023-05-10T07:09:52;21.80;56.00
67820;DHT22;54618;52.018;5.576;2023-05-10T07:12:17;21.80;56.20
67820;DHT22;54618;52.018;5.576;2023-05-10T07:14:43;21.80;56.00
67820;DHT22;54618;52.018;5.576;2023-05-10T07:17:08;21.90;55.90
67820;DHT22;54618;52.018;5.576;2023-05-10T07:19:34;21.80;56.00
67820;DHT22;54618;52.018;5.576;2023-05-10T07:22:00;21.80;56.10
67820;DHT22;54618;52.018;5.576;2023-05-10T07:24:26;21.90;55.90
67820;DHT22;54618;52.018;5.576;2023-05-10T07:26:51;21.90;55.80
67820;DHT22;54618;52.018;5.576;2023-05-10T07:29:17;21.90;55.80
67820;DHT22;54618;52.018;5.576;2023-05-10T07:31:42;21.80;55.80
67820;DHT22;54618;52.018;5.576;2023-05-10T07:34:08;21.90;55.90
67820;DHT22;54618;52.018;5.576;2023-05-10T07:36:34;21.90;55.90
67820;DHT22;54618;52.018;5.576;2023-05-10T07:39:00;21.90;56.00
67820;DHT22;54618;52.018;5.576;2023-05-10T07:41:26;21.80;56.10
67820;DHT22;54618;52.018;5.576;2023-05-10T07:43:51;21.90;56.30
67820;DHT22;54618;52.018;5.576;2023-05-10T07:46:17;21.90;56.20
67820;DHT22;54618;52.018;5.576;2023-05-10T07:48:44;21.90;56.20
67820;DHT22;54618;52.018;5.576;2023-05-10T07:51:10;21.90;56.20
67820;DHT22;54618;52.018;5.576;2023-05-10T07:53:35;22.00;56.10
67820;DHT22;54618;52.018;5.576;2023-05-10T07:58:45;21.90;56.20
67820;DHT22;54618;52.018;5.576;2023-05-10T08:01:11;22.00;56.30
67820;DHT22;54618;52.018;5.576;2023-05-10T08:03:36;22.00;56.30
67820;DHT22;54618;52.018;5.576;2023-05-10T08:06:02;21.90;56.20
67820;DHT22;54618;52.018;5.576;2023-05-10T08:08:28;21.90;56.40
67820;DHT22;54618;52.018;5.576;2023-05-10T08:10:54;21.80;56.50
67820;DHT22;54618;52.018;5.576;2023-05-10T08:13:20;21.80;56.60
67820;DHT22;54618;52.018;5.576;2023-05-10T08:15:46;21.80;56.50
67820;DHT22;54618;52.018;5.576;2023-05-10T08:18:12;21.80;56.50
67820;DHT22;54618;52.018;5.576;2023-05-10T08:20:37;21.80;56.60
67820;DHT22;54618;52.018;5.576;2023-05-10T08:23:03;21.70;56.60
67820;DHT22;54618;52.018;5.576;2023-05-10T08:25:28;21.70;56.70
67820;DHT22;54618;52.018;5.576;2023-05-10T08:27:54;21.70;56.70
67820;DHT22;54618;52.018;5.576;2023-05-10T08:30:19;21.80;56.50
67820;DHT22;54618;52.018;5.576;2023-05-10T08:32:45;21.80;56.60
67820;DHT22;54618;52.018;5.576;2023-05-10T08:35:10;21.70;56.60
67820;DHT22;54618;52.018;5.576;2023-05-10T08:37:36;21.70;56.60
67820;DHT22;54618;52.018;5.576;2023-05-10T08:40:01;21.80;56.60
67820;DHT22;54618;52.018;5.576;2023-05-10T08:42:30;21.80;56.50
67820;DHT22;54618;52.018;5.576;2023-05-10T08:44:59;21.80;56.50
67820;DHT22;54618;52.018;5.576;2023-05-10T08:47:25;21.80;56.50
67820;DHT22;54618;52.018;5.576;2023-05-10T08:49:51;21.80;56.60
67820;DHT22;54618;52.018;5.576;2023-05-10T08:52:17;21.80;56.60
67820;DHT22;54618;52.018;5.576;2023-05-10T08:54:43;21.90;56.50
67820;DHT22;54618;52.018;5.576;2023-05-10T08:57:10;21.80;56.50
67820;DHT22;54618;52.018;5.576;2023-05-10T08:59:36;21.80;56.50
67820;DHT22;54618;52.018;5.576;2023-05-10T09:02:06;21.70;56.50
67820;DHT22;54618;52.018;5.576;2023-05-10T09:04:33;21.80;56.60
67820;DHT22;54618;52.018;5.576;2023-05-10T09:06:58;21.80;56.60
67820;DHT22;54618;52.018;5.576;2023-05-10T09:09:25;21.90;56.50
67820;DHT22;54618;52.018;5.576;2023-05-10T09:11:51;21.80;56.40
67820;DHT22;54618;52.018;5.576;2023-05-10T09:14:18;21.80;56.40
67820;DHT22;54618;52.018;5.576;2023-05-10T09:16:45;21.80;56.50
67820;DHT22;54618;52.018;5.576;2023-05-10T09:19:10;21.80;56.50
67820;DHT22;54618;52.018;5.576;2023-05-10T09:21:36;21.90;56.40
67820;DHT22;54618;52.018;5.576;2023-05-10T09:24:05;21.90;56.30
67820;DHT22;54618;52.018;5.576;2023-05-10T09:26:32;21.80;56.30
67820;DHT22;54618;52.018;5.576;2023-05-10T09:28:59;21.80;56.50
67820;DHT22;54618;52.018;5.576;2023-05-10T09:31:25;21.80;56.50
67820;DHT22;54618;52.018;5.576;2023-05-10T09:34:08;21.90;56.40
67820;DHT22;54618;52.018;5.576;2023-05-10T09:36:33;21.90;56.20
67820;DHT22;54618;52.018;5.576;2023-05-10T09:38:59;21.90;56.30
67820;DHT22;54618;52.018;5.576;2023-05-10T09:41:25;21.90;56.30
67820;DHT22;54618;52.018;5.576;2023-05-10T09:43:55;21.80;56.40
67820;DHT22;54618;52.018;5.576;2023-05-10T09:46:22;21.80;56.30
67820;DHT22;54618;52.018;5.576;2023-05-10T09:48:48;21.90;56.30
67820;DHT22;54618;52.018;5.576;2023-05-10T09:51:24;21.90;56.30
67820;DHT22;54618;52.018;5.576;2023-05-10T09:56:35;21.90;56.40
67820;DHT22;54618;52.018;5.576;2023-05-10T09:59:03;21.90;56.50
67820;DHT22;54618;52.018;5.576;2023-05-10T10:01:29;22.00;56.40
67820;DHT22;54618;52.018;5.576;2023-05-10T10:03:54;22.00;56.30
67820;DHT22;54618;52.018;5.576;2023-05-10T10:06:23;22.00;56.40
67820;DHT22;54618;52.018;5.576;2023-05-10T10:08:49;22.00;56.50
67820;DHT22;54618;52.018;5.576;2023-05-10T10:11:15;21.90;56.40
67820;DHT22;54618;52.018;5.576;2023-05-10T10:13:41;21.90;56.60
67820;DHT22;54618;52.018;5.576;2023-05-10T10:16:08;21.90;56.50
67820;DHT22;54618;52.018;5.576;2023-05-10T10:18:36;21.90;56.40
67820;DHT22;54618;52.018;5.576;2023-05-10T10:21:05;21.90;56.40
67820;DHT22;54618;52.018;5.576;2023-05-10T10:23:31;21.90;56.50
67820;DHT22;54618;52.018;5.576;2023-05-10T10:25:56;21.80;56.50
67820;DHT22;54618;52.018;5.576;2023-05-10T10:28:31;21.90;56.60
67820;DHT22;54618;52.018;5.576;2023-05-10T10:31:10;21.90;56.40
67820;DHT22;54618;52.018;5.576;2023-05-10T10:33:53;21.90;56.30
67820;DHT22;54618;52.018;5.576;2023-05-10T10:36:20;21.90;56.40
67820;DHT22;54618;52.018;5.576;2023-05-10T10:41:31;21.80;56.50
67820;DHT22;54618;52.018;5.576;2023-05-10T10:49:43;21.90;56.30
67820;DHT22;54618;52.018;5.576;2023-05-10T10:52:15;21.80;56.40
67820;DHT22;54618;52.018;5.576;2023-05-10T10:54:49;21.80;56.40
67820;DHT22;54618;52.018;5.576;2023-05-10T10:57:15;21.80;56.40
67820;DHT22;54618;52.018;5.576;2023-05-10T10:59:43;21.90;56.30
67820;DHT22;54618;52.018;5.576;2023-05-10T11:02:32;21.90;56.30
67820;DHT22;54618;52.018;5.576;2023-05-10T11:04:58;21.80;56.20
67820;DHT22;54618;52.018;5.576;2023-05-10T11:07:24;21.80;56.30
67820;DHT22;54618;52.018;5.576;2023-05-10T11:09:50;21.80;56.30
67820;DHT22;54618;52.018;5.576;2023-05-10T11:12:15;21.90;56.20
67820;DHT22;54618;52.018;5.576;2023-05-10T11:14:41;21.80;56.10
67820;DHT22;54618;52.018;5.576;2023-05-10T11:17:27;21.80;56.30
67820;DHT22;54618;52.018;5.576;2023-05-10T11:20:10;21.70;56.30
67820;DHT22;54618;52.018;5.576;2023-05-10T11:22:52;21.80;56.30
67820;DHT22;54618;52.018;5.576;2023-05-10T11:25:18;21.80;56.20
67820;DHT22;54618;52.018;5.576;2023-05-10T11:27:44;21.80;56.90
67820;DHT22;54618;52.018;5.576;2023-05-10T11:30:11;21.80;56.30
67820;DHT22;54618;52.018;5.576;2023-05-10T11:32:40;21.80;56.40
67820;DHT22;54618;52.018;5.576;2023-05-10T11:35:09;21.80;56.30
67820;DHT22;54618;52.018;5.576;2023-05-10T11:37:35;21.90;56.30
67820;DHT22;54618;52.018;5.576;2023-05-10T11:40:01;21.80;56.20
67820;DHT22;54618;52.018;5.576;2023-05-10T11:42:28;21.80;56.10
67820;DHT22;54618;52.018;5.576;2023-05-10T11:44:53;21.80;56.20
67820;DHT22;54618;52.018;5.576;2023-05-10T11:47:19;21.90;56.20
67820;DHT22;54618;52.018;5.576;2023-05-10T11:49:45;21.90;56.20
67820;DHT22;54618;52.018;5.576;2023-05-10T11:52:11;22.00;56.00
67820;DHT22;54618;52.018;5.576;2023-05-10T11:54:37;22.00;56.00
67820;DHT22;54618;52.018;5.576;2023-05-10T11:57:03;21.90;56.00
67820;DHT22;54618;52.018;5.576;2023-05-10T11:59:28;21.90;56.20
67820;DHT22;54618;52.018;5.576;2023-05-10T12:01:54;22.10;56.30
67820;DHT22;54618;52.018;5.576;2023-05-10T12:04:20;22.20;56.10
67820;DHT22;54618;52.018;5.576;2023-05-10T12:06:46;22.30;56.10
67820;DHT22;54618;52.018;5.576;2023-05-10T12:09:12;22.30;56.30
67820;DHT22;54618;52.018;5.576;2023-05-10T12:11:39;22.30;56.40
67820;DHT22;54618;52.018;5.576;2023-05-10T12:14:05;22.20;56.40
67820;DHT22;54618;52.018;5.576;2023-05-10T12:16:31;22.20;56.40
67820;DHT22;54618;52.018;5.576;2023-05-10T12:18:58;22.20;56.40
67820;DHT22;54618;52.018;5.576;2023-05-10T12:21:24;22.20;56.40
67820;DHT22;54618;52.018;5.576;2023-05-10T12:23:52;22.40;56.30
67820;DHT22;54618;52.018;5.576;2023-05-10T12:26:21;22.60;56.20
67820;DHT22;54618;52.018;5.576;2023-05-10T12:28:47;22.60;56.70
67820;DHT22;54618;52.018;5.576;2023-05-10T12:31:12;22.50;56.10
67820;DHT22;54618;52.018;5.576;2023-05-10T12:33:39;22.40;56.20
67820;DHT22;54618;52.018;5.576;2023-05-10T12:36:08;22.30;56.30
67820;DHT22;54618;52.018;5.576;2023-05-10T12:38:39;22.30;56.40
67820;DHT22;54618;52.018;5.576;2023-05-10T12:41:09;22.30;56.40
67820;DHT22;54618;52.018;5.576;2023-05-10T12:43:36;22.50;56.10
67820;DHT22;54618;52.018;5.576;2023-05-10T12:48:31;22.50;56.00
67820;DHT22;54618;52.018;5.576;2023-05-10T12:50:57;22.40;56.20
67820;DHT22;54618;52.018;5.576;2023-05-10T12:53:22;22.40;56.20
67820;DHT22;54618;52.018;5.576;2023-05-10T12:55:48;22.30;56.30
67820;DHT22;54618;52.018;5.576;2023-05-10T12:58:14;22.20;56.40
67820;DHT22;54618;52.018;5.576;2023-05-10T13:00:39;22.30;56.40
67820;DHT22;54618;52.018;5.576;2023-05-10T13:03:05;22.50;56.10
67820;DHT22;54618;52.018;5.576;2023-05-10T13:05:35;22.50;56.10
67820;DHT22;54618;52.018;5.576;2023-05-10T13:08:01;22.40;56.10
67820;DHT22;54618;52.018;5.576;2023-05-10T13:10:27;22.40;56.10
67820;DHT22;54618;52.018;5.576;2023-05-10T13:12:53;22.30;56.20
67820;DHT22;54618;52.018;5.576;2023-05-10T13:15:18;22.20;56.40
67820;DHT22;54618;52.018;5.576;2023-05-10T13:17:44;22.20;56.40
67820;DHT22;54618;52.018;5.576;2023-05-10T13:20:10;22.20;56.30
67820;DHT22;54618;52.018;5.576;2023-05-10T13:22:36;22.20;56.40
67820;DHT22;54618;52.018;5.576;2023-05-10T13:25:02;22.10;56.50
67820;DHT22;54618;52.018;5.576;2023-05-10T13:27:28;22.10;56.40
67820;DHT22;54618;52.018;5.576;2023-05-10T13:29:54;22.10;56.50
67820;DHT22;54618;52.018;5.576;2023-05-10T13:32:20;22.10;56.60
67820;DHT22;54618;52.018;5.576;2023-05-10T13:34:46;22.10;56.60
67820;DHT22;54618;52.018;5.576;2023-05-10T13:37:11;22.20;56.40
67820;DHT22;54618;52.018;5.576;2023-05-10T13:39:37;22.20;56.50
67820;DHT22;54618;52.018;5.576;2023-05-10T13:42:03;22.10;56.60
67820;DHT22;54618;52.018;5.576;2023-05-10T13:44:29;22.10;56.60
67820;DHT22;54618;52.018;5.576;2023-05-10T13:46:56;22.10;56.70
67820;DHT22;54618;52.018;5.576;2023-05-10T13:49:21;22.10;56.70
67820;DHT22;54618;52.018;5.576;2023-05-10T13:51:47;22.20;56.60
67820;DHT22;54618;52.018;5.576;2023-05-10T13:54:13;22.20;56.50
67820;DHT22;54618;52.018;5.576;2023-05-10T13:56:39;22.10;56.50
67820;DHT22;54618;52.018;5.576;2023-05-10T13:59:04;22.10;56.70
67820;DHT22;54618;52.018;5.576;2023-05-10T14:01:30;22.00;56.70
67820;DHT22;54618;52.018;5.576;2023-05-10T14:03:56;22.00;56.80
67820;DHT22;54618;52.018;5.576;2023-05-10T14:06:22;22.00;56.70
67820;DHT22;54618;52.018;5.576;2023-05-10T14:08:47;22.00;56.70
67820;DHT22;54618;52.018;5.576;2023-05-10T14:11:14;22.00;56.70
67820;DHT22;54618;52.018;5.576;2023-05-10T14:13:39;22.00;56.70
67820;DHT22;54618;52.018;5.576;2023-05-10T14:16:05;21.90;56.70
67820;DHT22;54618;52.018;5.576;2023-05-10T14:18:31;21.90;56.70
67820;DHT22;54618;52.018;5.576;2023-05-10T14:20:56;22.00;56.70
67820;DHT22;54618;52.018;5.576;2023-05-10T14:23:22;22.00;56.60
67820;DHT22;54618;52.018;5.576;2023-05-10T14:25:51;22.00;56.60
67820;DHT22;54618;52.018;5.576;2023-05-10T14:28:17;21.90;56.60
67820;DHT22;54618;52.018;5.576;2023-05-10T14:30:44;21.90;56.60
67820;DHT22;54618;52.018;5.576;2023-05-10T14:33:09;21.90;56.70
67820;DHT22;54618;52.018;5.576;2023-05-10T14:35:35;21.90;56.60
67820;DHT22;54618;52.018;5.576;2023-05-10T14:38:02;22.00;56.60
67820;DHT22;54618;52.018;5.576;2023-05-10T14:40:29;21.90;56.50
67820;DHT22;54618;52.018;5.576;2023-05-10T14:42:54;21.90;56.60
67820;DHT22;54618;52.018;5.576;2023-05-10T14:45:20;21.90;56.60
67820;DHT22;54618;52.018;5.576;2023-05-10T14:47:46;21.90;56.70
67820;DHT22;54618;52.018;5.576;2023-05-10T14:50:11;21.90;56.50
67820;DHT22;54618;52.018;5.576;2023-05-10T14:52:37;21.90;56.40
67820;DHT22;54618;52.018;5.576;2023-05-10T14:55:03;21.90;56.50
67820;DHT22;54618;52.018;5.576;2023-05-10T14:57:28;21.90;56.50
67820;DHT22;54618;52.018;5.576;2023-05-10T14:59:55;21.90;56.60
67820;DHT22;54618;52.018;5.576;2023-05-10T15:02:21;21.90;56.60
67820;DHT22;54618;52.018;5.576;2023-05-10T15:04:47;22.00;56.40
67820;DHT22;54618;52.018;5.576;2023-05-10T15:07:12;21.90;56.40
67820;DHT22;54618;52.018;5.576;2023-05-10T15:09:40;21.90;56.50
67820;DHT22;54618;52.018;5.576;2023-05-10T15:12:05;21.80;56.60
67820;DHT22;54618;52.018;5.576;2023-05-10T15:14:31;21.90;56.70
67820;DHT22;54618;52.018;5.576;2023-05-10T15:16:58;22.00;56.60
67820;DHT22;54618;52.018;5.576;2023-05-10T15:19:23;22.10;56.70
67820;DHT22;54618;52.018;5.576;2023-05-10T15:21:49;22.10;56.90
67820;DHT22;54618;52.018;5.576;2023-05-10T15:24:14;22.10;57.20
67820;DHT22;54618;52.018;5.576;2023-05-10T15:26:40;22.10;57.50
67820;DHT22;54618;52.018;5.576;2023-05-10T15:29:06;22.10;58.10
67820;DHT22;54618;52.018;5.576;2023-05-10T15:31:31;22.10;58.30
67820;DHT22;54618;52.018;5.576;2023-05-10T15:34:00;22.20;58.40
67820;DHT22;54618;52.018;5.576;2023-05-10T15:36:26;22.20;58.50
67820;DHT22;54618;52.018;5.576;2023-05-10T15:38:52;22.20;58.50
67820;DHT22;54618;52.018;5.576;2023-05-10T15:41:18;22.20;58.50
67820;DHT22;54618;52.018;5.576;2023-05-10T15:43:44;22.20;58.60
67820;DHT22;54618;52.018;5.576;2023-05-10T15:46:09;22.20;58.60
67820;DHT22;54618;52.018;5.576;2023-05-10T15:48:35;22.20;58.60
67820;DHT22;54618;52.018;5.576;2023-05-10T15:51:01;22.20;58.40
67820;DHT22;54618;52.018;5.576;2023-05-10T15:53:26;22.30;58.30
67820;DHT22;54618;52.018;5.576;2023-05-10T15:55:52;22.30;58.70